sensor_id;sensor_type;location;lat;lon;timestamp;pressure;altitude;pressure_sealevel;temperature;humidity
74334;BME280;62753;40.394;-80.022;2023-09-08T00:00:07;96788.06;;;29.01;41.06
74334;BME280;62753;40.394;-80.022;2023-09-08T00:02:31;96789.03;;;28.78;42.54
74334;BME280;62753;40.394;-80.022;2023-09-08T00:04:57;96790.24;;;28.57;41.56
74334;BME280;62753;40.394;-80.022;2023-09-08T00:07:22;96788.65;;;28.08;42.29
74334;BME280;62753;40.394;-80.022;2023-09-08T00:09:48;96789.39;;;28.19;42.15
74334;BME280;62753;40.394;-80.022;2023-09-08T00:12:14;96792.76;;;27.83;42.95
74334;BME280;62753;40.394;-80.022;2023-09-08T00:14:39;96789.47;;;27.95;42.30
74334;BME280;62753;40.394;-80.022;2023-09-08T00:17:05;96793.66;;;28.13;43.10
74334;BME280;62753;40.394;-80.022;2023-09-08T00:19:31;96794.64;;;27.90;43.08
74334;BME280;62753;40.394;-80.022;2023-09-08T00:21:57;96791.84;;;28.61;41.64
74334;BME280;62753;40.394;-80.022;2023-09-08T00:24:22;96796.79;;;29.71;40.21
74334;BME280;62753;40.394;-80.022;2023-09-08T00:26:47;96798.98;;;28.43;41.91
74334;BME280;62753;40.394;-80.022;2023-09-08T00:29:12;96798.58;;;29.07;40.75
74334;BME280;62753;40.394;-80.022;2023-09-08T00:31:38;96803.75;;;29.04;41.07
74334;BME280;62753;40.394;-80.022;2023-09-08T00:34:03;96809.13;;;28.00;42.68
74334;BME280;62753;40.394;-80.022;2023-09-08T00:36:30;96807.69;;;28.01;43.08
74334;BME280;62753;40.394;-80.022;2023-09-08T00:38:55;96806.30;;;26.33;45.55
74334;BME280;62753;40.394;-80.022;2023-09-08T00:41:20;96808.82;;;27.15;45.39
74334;BME280;62753;40.394;-80.022;2023-09-08T00:43:46;96808.72;;;27.15;44.93
74334;BME280;62753;40.394;-80.022;2023-09-08T00:46:12;96809.56;;;28.23;42.96
74334;BME280;62753;40.394;-80.022;2023-09-08T00:48:37;96815.83;;;27.45;44.15
74334;BME280;62753;40.394;-80.022;2023-09-08T00:51:03;96821.88;;;27.83;42.98
74334;BME280;62753;40.394;-80.022;2023-09-08T00:53:28;96823.61;;;28.95;41.34
74334;BME280;62753;40.394;-80.022;2023-09-08T00:55:54;96831.80;;;27.51;43.39
74334;BME280;62753;40.394;-80.022;2023-09-08T00:58:19;96832.20;;;27.67;44.18
74334;BME280;62753;40.394;-80.022;2023-09-08T01:00:45;96833.60;;;27.53;45.00
74334;BME280;62753;40.394;-80.022;2023-09-08T01:03:11;96835.14;;;27.98;44.85
74334;BME280;62753;40.394;-80.022;2023-09-08T01:05:36;96837.45;;;27.39;44.67
74334;BME280;62753;40.394;-80.022;2023-09-08T01:08:02;96840.82;;;28.18;44.08
74334;BME280;62753;40.394;-80.022;2023-09-08T01:10:27;96836.39;;;27.45;45.52
74334;BME280;62753;40.394;-80.022;2023-09-08T01:12:53;96836.53;;;27.57;44.39
74334;BME280;62753;40.394;-80.022;2023-09-08T01:15:18;96842.55;;;27.92;44.63
74334;BME280;62753;40.394;-80.022;2023-09-08T01:17:44;96847.70;;;27.82;43.82
74334;BME280;62753;40.394;-80.022;2023-09-08T01:20:15;96849.06;;;28.31;43.44
74334;BME280;62753;40.394;-80.022;2023-09-08T01:22:48;96849.87;;;27.25;45.34
74334;BME280;62753;40.394;-80.022;2023-09-08T01:25:06;96855.86;;;27.67;44.21
74334;BME280;62753;40.394;-80.022;2023-09-08T01:27:28;96854.75;;;27.29;44.75
74334;BME280;62753;40.394;-80.022;2023-09-08T01:29:53;96852.42;;;28.11;43.99
74334;BME280;62753;40.394;-80.022;2023-09-08T01:32:18;96849.55;;;28.30;44.20
74334;BME280;62753;40.394;-80.022;2023-09-08T01:34:43;96850.44;;;28.09;44.22
74334;BME280;62753;40.394;-80.022;2023-09-08T01:37:08;96853.86;;;28.07;44.31
74334;BME280;62753;40.394;-80.022;2023-09-08T01:39:34;96854.63;;;27.16;45.45
74334;BME280;62753;40.394;-80.022;2023-09-08T01:42:00;96857.96;;;27.73;44.04
74334;BME280;62753;40.394;-80.022;2023-09-08T01:44:26;96857.79;;;27.59;44.02
74334;BME280;62753;40.394;-80.022;2023-09-08T01:46:50;96855.65;;;27.63;44.55
74334;BME280;62753;40.394;-80.022;2023-09-08T01:49:16;96857.65;;;27.36;45.43
74334;BME280;62753;40.394;-80.022;2023-09-08T01:51:42;96858.49;;;27.67;44.33
74334;BME280;62753;40.394;-80.022;2023-09-08T01:54:07;96856.45;;;28.96;42.42
74334;BME280;62753;40.394;-80.022;2023-09-08T01:56:32;96860.67;;;28.02;43.63
74334;BME280;62753;40.394;-80.022;2023-09-08T01:58:58;96859.89;;;26.49;45.50
74334;BME280;62753;40.394;-80.022;2023-09-08T02:01:24;96861.81;;;27.81;44.26
74334;BME280;62753;40.394;-80.022;2023-09-08T02:03:49;96863.80;;;27.86;43.30
74334;BME280;62753;40.394;-80.022;2023-09-08T02:06:15;96865.37;;;27.12;44.86
74334;BME280;62753;40.394;-80.022;2023-09-08T02:08:41;96873.14;;;28.48;42.89
74334;BME280;62753;40.394;-80.022;2023-09-08T02:11:06;96873.68;;;27.54;44.85
74334;BME280;62753;40.394;-80.022;2023-09-08T02:13:31;96876.99;;;27.75;44.08
74334;BME280;62753;40.394;-80.022;2023-09-08T02:15:57;96880.15;;;27.04;45.97
74334;BME280;62753;40.394;-80.022;2023-09-08T02:18:22;96885.15;;;27.90;43.79
74334;BME280;62753;40.394;-80.022;2023-09-08T02:20:47;96886.77;;;27.52;44.02
74334;BME280;62753;40.394;-80.022;2023-09-08T02:23:12;96893.15;;;28.38;42.65
74334;BME280;62753;40.394;-80.022;2023-09-08T02:25:38;96900.38;;;28.46;42.87
74334;BME280;62753;40.394;-80.022;2023-09-08T02:28:04;96903.06;;;27.03;45.08
74334;BME280;62753;40.394;-80.022;2023-09-08T02:30:29;96908.34;;;27.14;44.88
74334;BME280;62753;40.394;-80.022;2023-09-08T02:32:55;96913.84;;;27.47;44.89
74334;BME280;62753;40.394;-80.022;2023-09-08T02:35:21;96926.27;;;26.47;47.00
74334;BME280;62753;40.394;-80.022;2023-09-08T02:37:46;96930.87;;;27.47;44.76
74334;BME280;62753;40.394;-80.022;2023-09-08T02:40:12;96931.50;;;27.26;43.98
74334;BME280;62753;40.394;-80.022;2023-09-08T02:42:37;96927.76;;;27.74;43.21
74334;BME280;62753;40.394;-80.022;2023-09-08T02:45:03;96925.72;;;27.03;45.22
74334;BME280;62753;40.394;-80.022;2023-09-08T02:47:28;96916.84;;;27.60;44.10
74334;BME280;62753;40.394;-80.022;2023-09-08T02:49:53;96918.90;;;26.49;45.51
74334;BME280;62753;40.394;-80.022;2023-09-08T02:52:19;96913.12;;;27.42;43.94
74334;BME280;62753;40.394;-80.022;2023-09-08T02:54:44;96918.41;;;27.09;44.57
74334;BME280;62753;40.394;-80.022;2023-09-08T02:57:09;96916.84;;;26.99;44.17
74334;BME280;62753;40.394;-80.022;2023-09-08T02:59:35;96916.30;;;27.38;43.64
74334;BME280;62753;40.394;-80.022;2023-09-08T03:02:01;96924.05;;;25.77;46.50
74334;BME280;62753;40.394;-80.022;2023-09-08T03:04:27;96926.12;;;26.66;44.13
74334;BME280;62753;40.394;-80.022;2023-09-08T03:06:52;96921.15;;;27.30;43.30
74334;BME280;62753;40.394;-80.022;2023-09-08T03:09:18;96926.16;;;26.76;44.65
74334;BME280;62753;40.394;-80.022;2023-09-08T03:11:42;96925.93;;;27.66;43.14
74334;BME280;62753;40.394;-80.022;2023-09-08T03:14:09;96934.04;;;27.29;43.45
74334;BME280;62753;40.394;-80.022;2023-09-08T03:16:34;96934.03;;;26.98;43.80
74334;BME280;62753;40.394;-80.022;2023-09-08T03:19:00;96932.42;;;26.50;44.46
74334;BME280;62753;40.394;-80.022;2023-09-08T03:21:25;96931.86;;;25.73;45.98
74334;BME280;62753;40.394;-80.022;2023-09-08T03:23:50;96932.74;;;27.25;43.71
74334;BME280;62753;40.394;-80.022;2023-09-08T03:26:15;96934.19;;;26.73;44.95
74334;BME280;62753;40.394;-80.022;2023-09-08T03:28:42;96931.41;;;26.45;44.49
74334;BME280;62753;40.394;-80.022;2023-09-08T03:31:06;96937.52;;;26.09;44.36
74334;BME280;62753;40.394;-80.022;2023-09-08T03:33:31;96937.78;;;27.29;43.02
74334;BME280;62753;40.394;-80.022;2023-09-08T03:35:58;96936.67;;;26.47;43.71
74334;BME280;62753;40.394;-80.022;2023-09-08T03:38:23;96936.49;;;27.48;42.31
74334;BME280;62753;40.394;-80.022;2023-09-08T03:40:48;96943.60;;;27.31;42.39
74334;BME280;62753;40.394;-80.022;2023-09-08T03:43:14;96948.90;;;26.90;43.75
74334;BME280;62753;40.394;-80.022;2023-09-08T03:45:40;96944.27;;;26.95;43.32
74334;BME280;62753;40.394;-80.022;2023-09-08T03:48:06;96942.46;;;26.12;44.81
74334;BME280;62753;40.394;-80.022;2023-09-08T03:50:31;96938.61;;;27.23;43.21
74334;BME280;62753;40.394;-80.022;2023-09-08T03:52:56;96934.52;;;27.17;43.27
74334;BME280;62753;40.394;-80.022;2023-09-08T03:55:22;96933.74;;;26.01;45.97
74334;BME280;62753;40.394;-80.022;2023-09-08T03:57:47;96934.39;;;25.87;45.89
74334;BME280;62753;40.394;-80.022;2023-09-08T04:00:15;96935.56;;;26.16;45.61
74334;BME280;62753;40.394;-80.022;2023-09-08T04:02:38;96940.43;;;26.52;45.10
74334;BME280;62753;40.394;-80.022;2023-09-08T04:05:05;96942.14;;;26.43;44.92
74334;BME280;62753;40.394;-80.022;2023-09-08T04:07:29;96943.09;;;26.31;44.71
74334;BME280;62753;40.394;-80.022;2023-09-08T04:09:56;96943.86;;;25.73;46.37
74334;BME280;62753;40.394;-80.022;2023-09-08T04:12:20;96938.19;;;25.94;45.79
74334;BME280;62753;40.394;-80.022;2023-09-08T04:14:46;96940.26;;;26.24;45.09
74334;BME280;62753;40.394;-80.022;2023-09-08T04:17:12;96944.41;;;26.50;44.75
74334;BME280;62753;40.394;-80.022;2023-09-08T04:19:37;96943.71;;;26.07;45.06
74334;BME280;62753;40.394;-80.022;2023-09-08T04:22:03;96944.33;;;26.07;45.54
74334;BME280;62753;40.394;-80.022;2023-09-08T04:24:27;96946.81;;;25.51;46.78
74334;BME280;62753;40.394;-80.022;2023-09-08T04:26:53;96954.99;;;25.76;45.92
74334;BME280;62753;40.394;-80.022;2023-09-08T04:29:18;96956.89;;;26.07;45.53
74334;BME280;62753;40.394;-80.022;2023-09-08T04:31:43;96960.62;;;26.15;45.03
74334;BME280;62753;40.394;-80.022;2023-09-08T04:34:09;96956.79;;;25.99;45.62
74334;BME280;62753;40.394;-80.022;2023-09-08T04:36:34;96957.51;;;25.87;46.26
74334;BME280;62753;40.394;-80.022;2023-09-08T04:39:00;96960.33;;;25.96;45.61
74334;BME280;62753;40.394;-80.022;2023-09-08T04:41:26;96963.08;;;24.40;48.06
74334;BME280;62753;40.394;-80.022;2023-09-08T04:43:51;96959.03;;;25.19;46.27
74334;BME280;62753;40.394;-80.022;2023-09-08T04:46:16;96961.88;;;25.37;45.90
74334;BME280;62753;40.394;-80.022;2023-09-08T04:48:41;96964.05;;;25.92;44.88
74334;BME280;62753;40.394;-80.022;2023-09-08T04:51:07;96970.48;;;25.72;45.64
74334;BME280;62753;40.394;-80.022;2023-09-08T04:53:32;96971.82;;;26.64;43.82
74334;BME280;62753;40.394;-80.022;2023-09-08T04:55:58;96963.62;;;25.90;44.66
74334;BME280;62753;40.394;-80.022;2023-09-08T04:58:24;96960.57;;;25.76;45.25
74334;BME280;62753;40.394;-80.022;2023-09-08T05:00:49;96959.96;;;25.27;45.93
74334;BME280;62753;40.394;-80.022;2023-09-08T05:03:14;96959.02;;;25.44;46.12
74334;BME280;62753;40.394;-80.022;2023-09-08T05:05:39;96962.31;;;25.89;46.46
74334;BME280;62753;40.394;-80.022;2023-09-08T05:08:05;96969.34;;;25.99;45.76
74334;BME280;62753;40.394;-80.022;2023-09-08T05:10:30;96970.35;;;25.12;46.58
74334;BME280;62753;40.394;-80.022;2023-09-08T05:12:55;96975.71;;;24.97;46.56
74334;BME280;62753;40.394;-80.022;2023-09-08T05:15:21;96976.51;;;25.62;45.90
74334;BME280;62753;40.394;-80.022;2023-09-08T05:17:46;96980.68;;;25.56;45.43
74334;BME280;62753;40.394;-80.022;2023-09-08T05:20:12;96985.54;;;26.13;44.74
74334;BME280;62753;40.394;-80.022;2023-09-08T05:22:37;96987.77;;;25.70;45.66
74334;BME280;62753;40.394;-80.022;2023-09-08T05:25:03;96989.47;;;25.58;45.67
74334;BME280;62753;40.394;-80.022;2023-09-08T05:27:28;96988.53;;;25.60;45.69
74334;BME280;62753;40.394;-80.022;2023-09-08T05:29:54;96989.97;;;25.68;45.90
74334;BME280;62753;40.394;-80.022;2023-09-08T05:32:19;96990.20;;;25.44;45.76
74334;BME280;62753;40.394;-80.022;2023-09-08T05:34:44;96991.87;;;25.42;46.70
74334;BME280;62753;40.394;-80.022;2023-09-08T05:37:09;96992.70;;;25.12;47.23
74334;BME280;62753;40.394;-80.022;2023-09-08T05:39:35;96991.26;;;23.68;50.32
74334;BME280;62753;40.394;-80.022;2023-09-08T05:42:00;96991.42;;;24.33;49.19
74334;BME280;62753;40.394;-80.022;2023-09-08T05:44:26;96990.04;;;25.18;46.58
74334;BME280;62753;40.394;-80.022;2023-09-08T05:46:51;96991.89;;;25.95;45.27
74334;BME280;62753;40.394;-80.022;2023-09-08T05:49:17;96992.82;;;25.92;45.52
74334;BME280;62753;40.394;-80.022;2023-09-08T05:51:43;96998.53;;;24.76;47.57
74334;BME280;62753;40.394;-80.022;2023-09-08T05:54:08;96999.14;;;26.11;44.74
74334;BME280;62753;40.394;-80.022;2023-09-08T05:56:34;97000.38;;;25.87;44.83
74334;BME280;62753;40.394;-80.022;2023-09-08T05:58:59;96999.06;;;25.34;46.54
74334;BME280;62753;40.394;-80.022;2023-09-08T06:01:24;96996.07;;;25.95;45.00
74334;BME280;62753;40.394;-80.022;2023-09-08T06:03:50;96998.88;;;25.74;44.50
74334;BME280;62753;40.394;-80.022;2023-09-08T06:06:16;97004.17;;;25.01;46.34
74334;BME280;62753;40.394;-80.022;2023-09-08T06:08:41;97004.58;;;24.92;46.81
74334;BME280;62753;40.394;-80.022;2023-09-08T06:11:07;97004.78;;;26.01;44.29
74334;BME280;62753;40.394;-80.022;2023-09-08T06:13:33;97005.72;;;26.82;43.52
74334;BME280;62753;40.394;-80.022;2023-09-08T06:15:57;97005.09;;;26.50;44.07
74334;BME280;62753;40.394;-80.022;2023-09-08T06:18:25;97005.96;;;26.73;42.51
74334;BME280;62753;40.394;-80.022;2023-09-08T06:20:49;97002.66;;;26.47;43.09
74334;BME280;62753;40.394;-80.022;2023-09-08T06:23:14;96996.68;;;25.87;43.88
74334;BME280;62753;40.394;-80.022;2023-09-08T06:25:39;97004.79;;;26.10;43.24
74334;BME280;62753;40.394;-80.022;2023-09-08T06:28:05;97003.13;;;26.77;42.36
74334;BME280;62753;40.394;-80.022;2023-09-08T06:30:30;96992.35;;;24.99;46.25
74334;BME280;62753;40.394;-80.022;2023-09-08T06:32:56;96989.60;;;26.20;43.66
74334;BME280;62753;40.394;-80.022;2023-09-08T06:35:21;96993.65;;;26.25;43.31
74334;BME280;62753;40.394;-80.022;2023-09-08T06:37:47;97002.07;;;26.56;42.54
74334;BME280;62753;40.394;-80.022;2023-09-08T06:40:12;96999.14;;;26.48;43.76
74334;BME280;62753;40.394;-80.022;2023-09-08T06:42:38;96996.14;;;25.98;44.05
74334;BME280;62753;40.394;-80.022;2023-09-08T06:45:04;97001.25;;;26.59;42.98
74334;BME280;62753;40.394;-80.022;2023-09-08T06:47:28;96998.00;;;27.30;41.34
74334;BME280;62753;40.394;-80.022;2023-09-08T06:49:53;97000.17;;;26.51;42.96
74334;BME280;62753;40.394;-80.022;2023-09-08T06:52:19;96997.62;;;25.99;43.35
74334;BME280;62753;40.394;-80.022;2023-09-08T06:54:44;96999.50;;;26.14;43.34
74334;BME280;62753;40.394;-80.022;2023-09-08T06:57:10;97003.14;;;26.50;43.11
74334;BME280;62753;40.394;-80.022;2023-09-08T06:59:36;97006.63;;;26.74;42.28
74334;BME280;62753;40.394;-80.022;2023-09-08T07:02:01;97006.25;;;25.38;44.57
74334;BME280;62753;40.394;-80.022;2023-09-08T07:04:26;97011.23;;;26.55;42.70
74334;BME280;62753;40.394;-80.022;2023-09-08T07:06:52;97014.45;;;26.86;41.98
74334;BME280;62753;40.394;-80.022;2023-09-08T07:09:17;97013.20;;;26.25;43.64
74334;BME280;62753;40.394;-80.022;2023-09-08T07:11:42;97022.13;;;26.68;43.06
74334;BME280;62753;40.394;-80.022;2023-09-08T07:14:08;97024.06;;;26.55;42.40
74334;BME280;62753;40.394;-80.022;2023-09-08T07:16:34;97027.81;;;27.49;40.66
74334;BME280;62753;40.394;-80.022;2023-09-08T07:19:01;97032.60;;;28.11;40.09
74334;BME280;62753;40.394;-80.022;2023-09-08T07:21:26;97035.70;;;28.19;40.70
74334;BME280;62753;40.394;-80.022;2023-09-08T07:23:51;97034.00;;;27.87;40.87
74334;BME280;62753;40.394;-80.022;2023-09-08T07:26:17;97035.26;;;26.93;41.71
74334;BME280;62753;40.394;-80.022;2023-09-08T07:28:43;97029.15;;;25.94;43.50
74334;BME280;62753;40.394;-80.022;2023-09-08T07:31:07;97029.14;;;26.94;41.10
74334;BME280;62753;40.394;-80.022;2023-09-08T07:33:33;97030.68;;;26.80;42.19
74334;BME280;62753;40.394;-80.022;2023-09-08T07:36:04;97028.87;;;27.16;41.52
74334;BME280;62753;40.394;-80.022;2023-09-08T07:38:24;97035.47;;;26.86;41.42
74334;BME280;62753;40.394;-80.022;2023-09-08T07:40:50;97041.10;;;26.27;42.49
74334;BME280;62753;40.394;-80.022;2023-09-08T07:43:15;97045.79;;;27.50;41.71
74334;BME280;62753;40.394;-80.022;2023-09-08T07:45:41;97045.28;;;25.14;45.18
74334;BME280;62753;40.394;-80.022;2023-09-08T07:48:06;97043.74;;;25.97;44.03
74334;BME280;62753;40.394;-80.022;2023-09-08T07:50:32;97036.11;;;25.92;43.55
74334;BME280;62753;40.394;-80.022;2023-09-08T07:52:57;97036.28;;;26.82;43.06
74334;BME280;62753;40.394;-80.022;2023-09-08T07:55:22;97036.06;;;26.63;43.43
74334;BME280;62753;40.394;-80.022;2023-09-08T07:57:47;97036.94;;;26.01;44.51
74334;BME280;62753;40.394;-80.022;2023-09-08T08:00:15;97038.69;;;25.90;44.27
74334;BME280;62753;40.394;-80.022;2023-09-08T08:02:42;97042.58;;;26.57;43.21
74334;BME280;62753;40.394;-80.022;2023-09-08T08:05:05;97045.98;;;27.44;41.57
74334;BME280;62753;40.394;-80.022;2023-09-08T08:07:30;97047.34;;;27.04;42.13
74334;BME280;62753;40.394;-80.022;2023-09-08T08:09:55;97040.44;;;26.35;43.66
74334;BME280;62753;40.394;-80.022;2023-09-08T08:12:20;97036.55;;;26.47;43.62
74334;BME280;62753;40.394;-80.022;2023-09-08T08:14:47;97033.81;;;25.76;44.37
74334;BME280;62753;40.394;-80.022;2023-09-08T08:17:12;97033.53;;;26.21;44.56
74334;BME280;62753;40.394;-80.022;2023-09-08T08:19:37;97033.76;;;26.03;45.09
74334;BME280;62753;40.394;-80.022;2023-09-08T08:22:03;97035.25;;;26.77;43.36
74334;BME280;62753;40.394;-80.022;2023-09-08T08:24:29;97037.99;;;26.03;44.14
74334;BME280;62753;40.394;-80.022;2023-09-08T08:26:54;97036.46;;;25.68;44.57
74334;BME280;62753;40.394;-80.022;2023-09-08T08:29:19;97042.91;;;26.47;44.14
74334;BME280;62753;40.394;-80.022;2023-09-08T08:31:44;97044.05;;;26.37;44.60
74334;BME280;62753;40.394;-80.022;2023-09-08T08:34:09;97046.23;;;25.96;44.90
74334;BME280;62753;40.394;-80.022;2023-09-08T08:36:35;97044.77;;;26.41;44.30
74334;BME280;62753;40.394;-80.022;2023-09-08T08:39:01;97045.63;;;25.77;44.70
74334;BME280;62753;40.394;-80.022;2023-09-08T08:41:28;97049.16;;;25.73;45.02
74334;BME280;62753;40.394;-80.022;2023-09-08T08:43:53;97051.35;;;26.12;44.56
74334;BME280;62753;40.394;-80.022;2023-09-08T08:46:19;97056.82;;;24.56;46.92
74334;BME280;62753;40.394;-80.022;2023-09-08T08:48:45;97053.51;;;25.97;44.73
74334;BME280;62753;40.394;-80.022;2023-09-08T08:51:10;97051.52;;;25.83;45.41
74334;BME280;62753;40.394;-80.022;2023-09-08T08:53:34;97054.16;;;26.64;43.72
74334;BME280;62753;40.394;-80.022;2023-09-08T08:56:00;97059.76;;;26.89;42.63
74334;BME280;62753;40.394;-80.022;2023-09-08T08:58:25;97057.55;;;26.57;43.27
74334;BME280;62753;40.394;-80.022;2023-09-08T09:00:51;97051.95;;;26.27;44.05
74334;BME280;62753;40.394;-80.022;2023-09-08T09:03:16;97048.79;;;26.14;43.97
74334;BME280;62753;40.394;-80.022;2023-09-08T09:05:41;97054.41;;;24.39;47.46
74334;BME280;62753;40.394;-80.022;2023-09-08T09:08:07;97052.77;;;25.11;46.30
74334;BME280;62753;40.394;-80.022;2023-09-08T09:10:32;97054.15;;;26.49;43.41
74334;BME280;62753;40.394;-80.022;2023-09-08T09:12:57;97057.80;;;26.45;43.13
74334;BME280;62753;40.394;-80.022;2023-09-08T09:15:28;97065.96;;;26.92;42.43
74334;BME280;62753;40.394;-80.022;2023-09-08T09:20:14;97065.83;;;25.95;44.06
74334;BME280;62753;40.394;-80.022;2023-09-08T09:22:39;97065.92;;;26.48;43.27
74334;BME280;62753;40.394;-80.022;2023-09-08T09:25:05;97075.85;;;27.46;42.26
74334;BME280;62753;40.394;-80.022;2023-09-08T09:27:31;97074.02;;;25.84;44.02
74334;BME280;62753;40.394;-80.022;2023-09-08T09:29:58;97076.12;;;25.95;43.48
74334;BME280;62753;40.394;-80.022;2023-09-08T09:32:23;97080.23;;;26.64;42.77
74334;BME280;62753;40.394;-80.022;2023-09-08T09:34:49;97082.56;;;27.20;42.01
74334;BME280;62753;40.394;-80.022;2023-09-08T09:37:13;97086.70;;;27.24;41.95
74334;BME280;62753;40.394;-80.022;2023-09-08T09:39:38;97090.19;;;27.36;42.08
74334;BME280;62753;40.394;-80.022;2023-09-08T09:42:04;97091.73;;;27.15;42.43
74334;BME280;62753;40.394;-80.022;2023-09-08T09:44:30;97091.36;;;26.74;42.37
74334;BME280;62753;40.394;-80.022;2023-09-08T09:46:56;97094.98;;;27.55;41.77
74334;BME280;62753;40.394;-80.022;2023-09-08T09:49:20;97099.83;;;26.93;42.46
74334;BME280;62753;40.394;-80.022;2023-09-08T09:51:48;97103.50;;;26.40;43.56
74334;BME280;62753;40.394;-80.022;2023-09-08T09:54:12;97110.47;;;25.03;46.15
74334;BME280;62753;40.394;-80.022;2023-09-08T09:56:38;97108.58;;;25.68;44.98
74334;BME280;62753;40.394;-80.022;2023-09-08T09:59:03;97108.97;;;25.86;45.26
74334;BME280;62753;40.394;-80.022;2023-09-08T10:01:28;97108.41;;;25.94;44.91
74334;BME280;62753;40.394;-80.022;2023-09-08T10:03:54;97111.80;;;26.84;43.24
74334;BME280;62753;40.394;-80.022;2023-09-08T10:06:19;97111.23;;;25.58;45.71
74334;BME280;62753;40.394;-80.022;2023-09-08T10:08:45;97111.73;;;26.90;42.74
74334;BME280;62753;40.394;-80.022;2023-09-08T10:11:11;97116.56;;;27.71;41.28
74334;BME280;62753;40.394;-80.022;2023-09-08T10:13:40;97120.29;;;27.20;41.75
74334;BME280;62753;40.394;-80.022;2023-09-08T10:16:02;97121.36;;;27.43;41.45
74334;BME280;62753;40.394;-80.022;2023-09-08T10:18:27;97117.91;;;26.46;43.39
74334;BME280;62753;40.394;-80.022;2023-09-08T10:20:54;97119.18;;;26.31;43.88
74334;BME280;62753;40.394;-80.022;2023-09-08T10:23:23;97123.11;;;27.14;41.80
74334;BME280;62753;40.394;-80.022;2023-09-08T10:25:45;97117.97;;;27.77;41.12
74334;BME280;62753;40.394;-80.022;2023-09-08T10:28:09;97119.03;;;27.31;41.28
74334;BME280;62753;40.394;-80.022;2023-09-08T10:30:35;97113.91;;;28.03;40.42
74334;BME280;62753;40.394;-80.022;2023-09-08T10:33:00;97107.31;;;26.96;42.31
74334;BME280;62753;40.394;-80.022;2023-09-08T10:35:25;97105.35;;;26.84;42.49
74334;BME280;62753;40.394;-80.022;2023-09-08T10:37:51;97111.26;;;26.97;41.82
74334;BME280;62753;40.394;-80.022;2023-09-08T10:40:23;97109.73;;;25.34;44.96
74334;BME280;62753;40.394;-80.022;2023-09-08T10:42:42;97104.65;;;25.80;44.34
74334;BME280;62753;40.394;-80.022;2023-09-08T10:45:16;97101.08;;;25.83;44.28
74334;BME280;62753;40.394;-80.022;2023-09-08T10:49:58;97105.31;;;26.76;42.58
74334;BME280;62753;40.394;-80.022;2023-09-08T10:52:24;97109.26;;;27.34;41.06
74334;BME280;62753;40.394;-80.022;2023-09-08T10:54:51;97110.39;;;27.29;41.18
74334;BME280;62753;40.394;-80.022;2023-09-08T10:57:16;97106.95;;;26.63;41.95
74334;BME280;62753;40.394;-80.022;2023-09-08T10:59:40;97108.46;;;25.33;45.00
74334;BME280;62753;40.394;-80.022;2023-09-08T11:02:05;97110.41;;;25.96;43.82
74334;BME280;62753;40.394;-80.022;2023-09-08T11:04:31;97119.26;;;26.75;42.67
74334;BME280;62753;40.394;-80.022;2023-09-08T11:06:57;97123.63;;;26.83;42.13
74334;BME280;62753;40.394;-80.022;2023-09-08T11:09:22;97127.74;;;27.27;42.30
74334;BME280;62753;40.394;-80.022;2023-09-08T11:11:46;97133.71;;;26.43;42.85
74334;BME280;62753;40.394;-80.022;2023-09-08T11:14:12;97138.02;;;27.13;41.94
74334;BME280;62753;40.394;-80.022;2023-09-08T11:16:37;97135.18;;;28.04;40.33
74334;BME280;62753;40.394;-80.022;2023-09-08T11:19:03;97131.41;;;27.43;41.24
74334;BME280;62753;40.394;-80.022;2023-09-08T11:21:29;97122.32;;;25.70;44.24
74334;BME280;62753;40.394;-80.022;2023-09-08T11:23:59;97125.45;;;26.33;43.03
74334;BME280;62753;40.394;-80.022;2023-09-08T11:26:19;97133.42;;;27.20;41.64
74334;BME280;62753;40.394;-80.022;2023-09-08T11:28:46;97139.66;;;27.36;40.67
74334;BME280;62753;40.394;-80.022;2023-09-08T11:31:12;97137.26;;;28.85;38.81
74334;BME280;62753;40.394;-80.022;2023-09-08T11:33:36;97144.01;;;28.59;39.44
74334;BME280;62753;40.394;-80.022;2023-09-08T11:36:02;97145.14;;;27.49;40.80
74334;BME280;62753;40.394;-80.022;2023-09-08T11:38:29;97141.59;;;26.84;42.58
74334;BME280;62753;40.394;-80.022;2023-09-08T11:40:59;97145.94;;;26.48;42.66
74334;BME280;62753;40.394;-80.022;2023-09-08T11:43:19;97153.63;;;27.20;41.83
74334;BME280;62753;40.394;-80.022;2023-09-08T11:45:44;97158.18;;;28.65;39.48
74334;BME280;62753;40.394;-80.022;2023-09-08T11:48:09;97159.97;;;28.13;39.93
74334;BME280;62753;40.394;-80.022;2023-09-08T11:50:34;97167.75;;;27.81;40.87
74334;BME280;62753;40.394;-80.022;2023-09-08T11:52:59;97170.01;;;27.99;40.06
74334;BME280;62753;40.394;-80.022;2023-09-08T11:55:25;97171.51;;;28.18;40.85
74334;BME280;62753;40.394;-80.022;2023-09-08T11:57:53;97170.77;;;27.15;42.25
74334;BME280;62753;40.394;-80.022;2023-09-08T12:00:18;97173.23;;;26.44;43.73
74334;BME280;62753;40.394;-80.022;2023-09-08T12:02:41;97174.02;;;27.22;42.16
74334;BME280;62753;40.394;-80.022;2023-09-08T12:05:12;97179.79;;;28.36;40.16
74334;BME280;62753;40.394;-80.022;2023-09-08T12:07:33;97185.46;;;27.12;41.60
74334;BME280;62753;40.394;-80.022;2023-09-08T12:09:59;97186.78;;;28.17;39.83
74334;BME280;62753;40.394;-80.022;2023-09-08T12:12:25;97191.96;;;27.46;41.90
74334;BME280;62753;40.394;-80.022;2023-09-08T12:14:49;97194.16;;;28.38;39.70
74334;BME280;62753;40.394;-80.022;2023-09-08T12:17:14;97195.94;;;28.07;40.22
74334;BME280;62753;40.394;-80.022;2023-09-08T12:19:40;97190.42;;;28.88;38.49
74334;BME280;62753;40.394;-80.022;2023-09-08T12:22:08;97196.85;;;27.28;41.50
74334;BME280;62753;40.394;-80.022;2023-09-08T12:24:46;97193.04;;;29.53;38.15
74334;BME280;62753;40.394;-80.022;2023-09-08T12:26:55;97197.08;;;28.57;39.46
74334;BME280;62753;40.394;-80.022;2023-09-08T12:29:20;97192.84;;;28.89;39.01
74334;BME280;62753;40.394;-80.022;2023-09-08T12:31:47;97195.36;;;28.35;39.88
74334;BME280;62753;40.394;-80.022;2023-09-08T12:34:12;97194.69;;;28.88;39.57